Time;durP1;ratioP1;P1;durP2;ratioP2;P2;SDS_P1;SDS_P2;PMS_P1;PMS_P2;Temp;Humidity;BMP_temperature;BMP_pressure;BME280_temperature;BME280_humidity;BME280_pressure;Samples;Min_cycle;Max_cycle;Signal;HPM_P1;HPM_P2
2023/04/18 00:01:57;;;;;;;42.30;27.75;;;;;;;7.46;100.00;102621.13;4956047;28;20051;-78
2023/04/18 00:04:24;;;;;;;44.35;26.83;;;;;;;7.41;100.00;102624.75;4973624;28;20026;-78
2023/04/18 00:06:51;;;;;;;46.80;28.17;;;;;;;7.35;100.00;102621.28;4972386;28;20043;-79
2023/04/18 00:09:17;;;;;;;45.40;28.45;;;;;;;7.32;100.00;102618.63;4943899;28;20092;-79
2023/04/18 00:11:44;;;;;;;43.58;28.83;;;;;;;7.26;100.00;102616.06;4993354;28;20609;-82
2023/04/18 00:14:10;;;;;;;44.92;25.52;;;;;;;7.22;100.00;102621.47;4975568;28;20045;-77
2023/04/18 00:16:37;;;;;;;42.60;26.95;;;;;;;7.25;100.00;102618.75;4938404;28;20464;-77
2023/04/18 00:19:05;;;;;;;37.10;23.17;;;;;;;7.25;100.00;102618.75;4972412;28;20184;-79
2023/04/18 00:21:31;;;;;;;41.17;23.67;;;;;;;7.28;100.00;102619.59;4934817;28;20023;-78
2023/04/18 00:23:58;;;;;;;38.70;23.08;;;;;;;7.32;100.00;102620.44;4956213;28;20128;-77
2023/04/18 00:26:26;;;;;;;35.25;22.60;;;;;;;7.31;100.00;102630.19;4970791;28;20035;-77
2023/04/18 00:28:53;;;;;;;40.28;23.98;;;;;;;7.23;100.00;102634.72;4957469;28;20132;-77
2023/04/18 00:31:19;;;;;;;37.92;22.80;;;;;;;7.14;100.00;102624.22;4972729;28;20050;-77
2023/04/18 00:33:45;;;;;;;37.10;23.15;;;;;;;7.04;100.00;102620.78;4971964;28;20038;-78
2023/04/18 00:36:11;;;;;;;40.47;21.63;;;;;;;7.01;100.00;102625.22;4955848;28;20050;-77
2023/04/18 00:38:39;;;;;;;32.28;20.30;;;;;;;7.01;100.00;102627.88;4972367;28;20432;-77
2023/04/18 00:41:06;;;;;;;36.20;22.15;;;;;;;6.97;100.00;102622.63;4956222;28;20035;-79
2023/04/18 00:43:33;;;;;;;38.15;21.90;;;;;;;6.90;100.00;102622.72;4971270;28;20035;-77
2023/04/18 00:46:00;;;;;;;34.97;21.08;;;;;;;6.79;100.00;102620.19;4989065;28;20077;-77
2023/04/18 00:48:26;;;;;;;32.25;20.55;;;;;;;6.65;100.00;102619.44;4956185;28;20046;-77
2023/04/18 00:50:53;;;;;;;31.65;19.65;;;;;;;6.53;100.00;102624.00;4971527;28;20041;-77
2023/04/18 00:53:20;;;;;;;33.53;19.75;;;;;;;6.51;100.00;102620.47;4972493;28;20039;-77
2023/04/18 00:55:47;;;;;;;31.65;19.52;;;;;;;6.48;100.00;102620.50;4962204;28;20799;-78
2023/04/18 00:58:13;;;;;;;29.75;18.02;;;;;;;6.43;100.00;102622.34;4971528;28;20420;-78
2023/04/18 01:00:41;;;;;;;26.38;17.60;;;;;;;6.39;100.00;102620.56;4972865;28;20035;-79
2023/04/18 01:03:07;;;;;;;25.30;17.38;;;;;;;6.37;100.00;102622.38;4955001;28;20046;-78
2023/04/18 01:05:35;;;;;;;27.10;15.95;;;;;;;6.36;100.00;102625.94;4971961;28;20046;-78
2023/04/18 01:08:03;;;;;;;28.45;16.60;;;;;;;6.41;100.00;102613.47;4954046;28;20035;-77
2023/04/18 01:10:30;;;;;;;21.85;15.07;;;;;;;6.47;100.00;102621.41;4962033;28;20586;-78
2023/04/18 01:13:12;;;;;;;28.63;15.45;;;;;;;6.49;100.00;102616.97;4987169;28;20034;-77
2023/04/18 01:15:40;;;;;;;25.25;15.45;;;;;;;6.44;100.00;102623.22;4986474;28;20234;-78
2023/04/18 01:18:07;;;;;;;20.95;14.90;;;;;;;6.39;100.00;102615.28;4971568;28;20035;-78
2023/04/18 01:20:37;;;;;;;28.67;16.02;;;;;;;-144.87;100.00;61487.56;4972204;28;20043;-78
2023/04/18 01:23:03;;;;;;;24.70;14.88;;;;;;;-144.87;100.00;61487.56;4955639;28;20413;-78
2023/04/18 01:25:29;;;;;;;21.60;14.57;;;;;;;-144.87;100.00;61487.56;4972901;28;20046;-77
2023/04/18 01:27:57;;;;;;;21.42;14.40;;;;;;;-144.87;100.00;61487.56;4972788;28;20047;-78
2023/04/18 01:30:26;;;;;;;21.48;13.80;;;;;;;-144.87;100.00;61487.56;4955355;28;20042;-77
2023/04/18 01:32:52;;;;;;;20.45;13.48;;;;;;;-144.87;100.00;61487.56;4959920;28;20452;-78
2023/04/18 01:35:19;;;;;;;22.17;13.95;;;;;;;-144.87;100.00;61487.56;4932078;28;20039;-77
2023/04/18 01:37:45;;;;;;;21.40;13.90;;;;;;;-144.87;100.00;61487.56;4953509;28;20047;-78
2023/04/18 01:40:11;;;;;;;21.40;14.35;;;;;;;-144.87;100.00;61487.56;4975484;28;20126;-78
2023/04/18 01:42:38;;;;;;;22.50;14.38;;;;;;;-144.87;100.00;61487.56;4970018;28;20400;-77
2023/04/18 01:45:06;;;;;;;29.17;13.48;;;;;;;-144.87;100.00;61487.56;4954721;28;20047;-78
2023/04/18 01:47:33;;;;;;;21.85;13.55;;;;;;;-144.87;100.00;61487.56;4949008;28;20089;-78
2023/04/18 01:49:59;;;;;;;23.20;12.82;;;;;;;-144.87;100.00;61487.56;4979226;28;20046;-78
2023/04/18 01:52:28;;;;;;;23.75;13.45;;;;;;;-144.87;100.00;61487.56;4973774;28;20034;-78
2023/04/18 01:54:54;;;;;;;18.85;12.95;;;;;;;-144.87;100.00;61487.56;4955068;28;20035;-79
2023/04/18 01:57:20;;;;;;;19.52;13.70;;;;;;;-144.87;100.00;61487.56;4950742;28;20033;-79
2023/04/18 01:59:48;;;;;;;22.00;12.70;;;;;;;-144.87;100.00;61487.56;4947394;29;20050;-80
2023/04/18 02:02:15;;;;;;;21.60;13.65;;;;;;;-144.87;100.00;61487.56;4966434;28;20035;-79
2023/04/18 02:04:41;;;;;;;20.60;12.80;;;;;;;-144.87;100.00;61487.56;4971105;28;20039;-78
2023/04/18 02:07:09;;;;;;;21.45;13.57;;;;;;;-144.87;100.00;61487.56;4970961;28;20519;-79
2023/04/18 02:09:35;;;;;;;19.48;13.10;;;;;;;-144.87;100.00;61487.56;4965743;28;20401;-79
2023/04/18 02:12:03;;;;;;;20.60;13.07;;;;;;;-144.87;100.00;61487.56;4935504;29;20043;-79
2023/04/18 02:14:33;;;;;;;24.02;13.30;;;;;;;-144.87;100.00;61487.56;4951647;29;20043;-79
2023/04/18 02:17:00;;;;;;;20.80;13.65;;;;;;;-144.87;100.00;61487.56;4962556;28;20585;-78
2023/04/18 02:19:29;;;;;;;19.77;13.75;;;;;;;-144.87;100.00;61487.56;4954523;28;20038;-78
2023/04/18 02:21:55;;;;;;;20.92;13.45;;;;;;;-144.87;100.00;61487.56;4955578;28;20579;-78
2023/04/18 02:24:22;;;;;;;21.75;13.77;;;;;;;-144.87;100.00;61487.56;4976772;28;20030;-77
2023/04/18 02:26:49;;;;;;;22.25;13.82;;;;;;;-144.87;100.00;61487.56;4974398;28;20039;-78
2023/04/18 02:29:15;;;;;;;21.52;13.63;;;;;;;-144.87;100.00;61487.56;4975777;28;20043;-78
2023/04/18 02:31:42;;;;;;;21.33;14.38;;;;;;;-144.87;100.00;61487.56;4971187;28;20061;-77
2023/04/18 02:34:08;;;;;;;21.88;14.80;;;;;;;-144.87;100.00;61487.56;4970220;28;20568;-80
2023/04/18 02:36:34;;;;;;;24.52;14.73;;;;;;;-144.87;100.00;61487.56;4972271;28;20039;-79
2023/04/18 02:39:03;;;;;;;26.17;14.98;;;;;;;-144.87;100.00;61487.56;4947458;28;20507;-80
2023/04/18 02:41:30;;;;;;;26.45;14.85;;;;;;;-144.87;100.00;61487.56;4971194;28;20094;-79
2023/04/18 02:43:57;;;;;;;25.65;15.02;;;;;;;-144.87;100.00;61487.56;4970844;28;20043;-79
2023/04/18 02:46:24;;;;;;;29.45;14.90;;;;;;;-144.87;100.00;61487.56;4970548;28;20042;-78
2023/04/18 02:48:50;;;;;;;25.02;15.23;;;;;;;-144.87;100.00;61487.56;4953688;28;20510;-79
2023/04/18 02:51:18;;;;;;;25.35;14.93;;;;;;;-144.87;100.00;61487.56;4954177;28;20034;-79
2023/04/18 02:53:45;;;;;;;29.75;15.55;;;;;;;-144.87;100.00;61487.56;4970066;28;21418;-80
2023/04/18 02:56:15;;;;;;;24.40;15.88;;;;;;;-144.87;100.00;61487.56;4969901;28;20054;-79
2023/04/18 02:59:00;;;;;;;26.42;15.32;;;;;;;-144.87;100.00;61487.56;4972209;28;20565;-77
2023/04/18 03:01:46;;;;;;;25.88;15.85;;;;;;;-144.87;100.00;61487.56;4943782;28;20050;-78
2023/04/18 03:04:15;;;;;;;25.58;15.70;;;;;;;-144.87;100.00;61487.56;4939916;28;20035;-78
2023/04/18 03:06:44;;;;;;;27.63;16.40;;;;;;;-144.87;100.00;61487.56;4981793;28;20066;-83
2023/04/18 03:09:11;;;;;;;29.30;17.92;;;;;;;-144.87;100.00;61487.56;4967524;28;20047;-77
2023/04/18 03:11:43;;;;;;;25.88;16.17;;;;;;;-144.87;100.00;61487.56;4939959;28;20042;-80
2023/04/18 03:14:09;;;;;;;28.23;15.90;;;;;;;-144.87;100.00;61487.56;4972795;28;20062;-77
2023/04/18 03:16:44;;;;;;;23.98;15.52;;;;;;;-144.87;100.00;61487.56;4978327;28;20158;-80
2023/04/18 03:19:13;;;;;;;27.90;16.58;;;;;;;-144.87;100.00;61487.56;4963298;28;20057;-79
2023/04/18 03:21:40;;;;;;;28.95;16.42;;;;;;;-144.87;100.00;61487.56;4974106;28;20030;-78
2023/04/18 03:24:06;;;;;;;25.02;15.45;;;;;;;-144.87;100.00;61487.56;4958203;28;20065;-77
2023/04/18 03:26:34;;;;;;;25.13;16.30;;;;;;;-144.87;100.00;61487.56;4958551;28;20061;-76
2023/04/18 03:29:01;;;;;;;26.75;16.08;;;;;;;-144.87;100.00;61487.56;4957572;28;20177;-77
2023/04/18 03:31:28;;;;;;;27.55;16.30;;;;;;;-144.87;100.00;61487.56;4957085;28;20038;-77
2023/04/18 03:33:54;;;;;;;30.58;17.13;;;;;;;-144.87;100.00;61487.56;4959535;28;20070;-78
2023/04/18 03:36:24;;;;;;;25.35;15.40;;;;;;;-144.87;100.00;61487.56;4976199;28;20101;-77
2023/04/18 03:38:51;;;;;;;29.63;15.95;;;;;;;-144.87;100.00;61487.56;4965892;28;20093;-78
2023/04/18 03:41:18;;;;;;;25.45;15.98;;;;;;;-144.87;100.00;61487.56;4959741;28;20039;-78
2023/04/18 03:43:44;;;;;;;26.80;17.10;;;;;;;-144.87;100.00;61487.56;4982813;28;20189;-79
2023/04/18 03:46:11;;;;;;;27.25;16.15;;;;;;;-144.87;100.00;61487.56;4966901;28;20467;-77
2023/04/18 03:48:37;;;;;;;27.45;16.90;;;;;;;-144.87;100.00;61487.56;4949364;28;20090;-77
2023/04/18 03:51:09;;;;;;;25.95;15.48;;;;;;;-144.87;100.00;61487.56;4958457;28;20502;-77
2023/04/18 03:53:37;;;;;;;30.35;16.50;;;;;;;-144.87;100.00;61487.56;4957560;28;20492;-77
2023/04/18 03:56:03;;;;;;;24.50;15.93;;;;;;;-144.87;100.00;61487.56;4975657;28;20082;-78
2023/04/18 03:58:45;;;;;;;24.08;17.02;;;;;;;-144.87;100.00;61487.56;4972638;28;20034;-79
2023/04/18 04:01:11;;;;;;;27.25;16.00;;;;;;;-144.87;100.00;61487.56;4942541;28;20051;-78
2023/04/18 04:03:38;;;;;;;27.58;16.00;;;;;;;-144.87;100.00;61487.56;4970371;28;20058;-78
2023/04/18 04:06:05;;;;;;;35.72;16.90;;;;;;;-144.87;100.00;61487.56;4973679;28;20031;-78
2023/04/18 04:08:33;;;;;;;25.85;16.75;;;;;;;-144.87;100.00;61487.56;4966436;28;20035;-78
2023/04/18 04:11:00;;;;;;;25.63;16.10;;;;;;;-144.87;100.00;61487.56;4956659;28;20043;-77
2023/04/18 04:13:26;;;;;;;30.00;16.80;;;;;;;-144.87;100.00;61487.56;4957150;28;20030;-77
2023/04/18 04:15:54;;;;;;;28.52;16.48;;;;;;;-144.87;100.00;61487.56;4957241;28;20481;-78
2023/04/18 04:18:28;;;;;;;27.15;16.38;;;;;;;-144.87;100.00;61487.56;4973993;28;20031;-77
2023/04/18 04:20:56;;;;;;;27.40;17.65;;;;;;;-144.87;100.00;61487.56;4956150;28;20031;-78
2023/04/18 04:23:33;;;;;;;30.60;16.38;;;;;;;-144.87;100.00;61487.56;4958609;28;20181;-77
2023/04/18 04:26:03;;;;;;;29.17;16.77;;;;;;;-144.87;100.00;61487.56;4967220;28;20125;-78
2023/04/18 04:28:47;;;;;;;26.23;16.98;;;;;;;-144.87;100.00;61487.56;4968618;28;20042;-80
2023/04/18 04:31:17;;;;;;;28.85;17.75;;;;;;;-144.87;100.00;61487.56;4962646;28;20047;-79
2023/04/18 04:33:43;;;;;;;29.55;17.23;;;;;;;-144.87;100.00;61487.56;4958812;28;20045;-80
2023/04/18 04:36:18;;;;;;;27.02;16.42;;;;;;;-144.87;100.00;61487.56;4977924;28;20062;-77
2023/04/18 04:38:46;;;;;;;29.38;16.92;;;;;;;-144.87;100.00;61487.56;4972093;28;20062;-78
2023/04/18 04:41:12;;;;;;;27.83;18.52;;;;;;;-144.87;100.00;61487.56;4957173;28;20038;-78
2023/04/18 04:43:40;;;;;;;30.85;17.50;;;;;;;-144.87;100.00;61487.56;4973401;28;20050;-78
2023/04/18 04:46:07;;;;;;;34.40;16.98;;;;;;;-144.87;100.00;61487.56;4965533;28;20114;-77
2023/04/18 04:48:33;;;;;;;28.48;17.90;;;;;;;-144.87;100.00;61487.56;4974280;28;20411;-77
2023/04/18 04:51:02;;;;;;;25.95;18.10;;;;;;;-144.87;100.00;61487.56;4988236;28;20035;-78
2023/04/18 04:53:29;;;;;;;32.90;18.05;;;;;;;-144.87;100.00;61487.56;4980644;28;20061;-77
2023/04/18 04:55:59;;;;;;;34.00;18.35;;;;;;;-144.87;100.00;61487.56;4973003;28;20038;-78
2023/04/18 04:58:26;;;;;;;26.55;17.80;;;;;;;-144.87;100.00;61487.56;4974956;28;20042;-78
2023/04/18 05:01:02;;;;;;;29.65;18.48;;;;;;;-144.87;100.00;61487.56;4960072;28;20063;-78
2023/04/18 05:03:30;;;;;;;32.03;17.08;;;;;;;-144.87;100.00;61487.56;4968178;28;20046;-77
2023/04/18 05:05:57;;;;;;;25.98;18.20;;;;;;;-144.87;100.00;61487.56;4957815;28;20083;-77
2023/04/18 05:08:25;;;;;;;32.85;17.88;;;;;;;-144.87;100.00;61487.56;4963859;28;20062;-77
2023/04/18 05:10:51;;;;;;;28.60;18.42;;;;;;;-144.87;100.00;61487.56;4967936;28;20118;-78
2023/04/18 05:13:17;;;;;;;29.95;17.52;;;;;;;-144.87;100.00;61487.56;4953466;28;20409;-78
2023/04/18 05:15:44;;;;;;;29.80;18.48;;;;;;;-144.87;100.00;61487.56;4967969;28;20062;-76
2023/04/18 05:18:10;;;;;;;29.77;18.33;;;;;;;-144.87;100.00;61487.56;4960689;28;20113;-78
2023/04/18 05:20:36;;;;;;;25.75;18.13;;;;;;;-144.87;100.00;61487.56;4955136;28;20046;-77
2023/04/18 05:23:03;;;;;;;31.30;17.70;;;;;;;-144.87;100.00;61487.56;4970562;28;20034;-78
2023/04/18 05:25:30;;;;;;;31.42;18.52;;;;;;;-144.87;100.00;61487.56;4954309;28;20478;-77
2023/04/18 05:27:56;;;;;;;29.50;18.30;;;;;;;-144.87;100.00;61487.56;4964743;28;20042;-78
2023/04/18 05:30:22;;;;;;;35.17;18.27;;;;;;;-144.87;100.00;61487.56;4964837;28;20038;-77
2023/04/18 05:32:49;;;;;;;29.48;17.95;;;;;;;-144.87;100.00;61487.56;4968697;28;20067;-78
2023/04/18 05:35:15;;;;;;;30.75;18.65;;;;;;;-144.87;100.00;61487.56;4965787;28;20086;-77
2023/04/18 05:37:42;;;;;;;35.30;18.40;;;;;;;-144.87;100.00;61487.56;4971917;28;20053;-78
2023/04/18 05:40:09;;;;;;;35.15;18.65;;;;;;;-144.87;100.00;61487.56;4943382;28;20463;-77
2023/04/18 05:42:35;;;;;;;29.98;19.67;;;;;;;-144.87;100.00;61487.56;4992115;28;20072;-78
2023/04/18 05:45:01;;;;;;;28.70;17.83;;;;;;;-144.87;100.00;61487.56;4969219;28;20398;-78
2023/04/18 05:47:29;;;;;;;33.53;18.50;;;;;;;-144.87;100.00;61487.56;4988469;28;20133;-78
2023/04/18 05:49:55;;;;;;;27.58;18.20;;;;;;;-144.87;100.00;61487.56;4956389;28;20052;-78
2023/04/18 05:52:21;;;;;;;32.92;18.98;;;;;;;-144.87;100.00;61487.56;4953062;28;20669;-79
2023/04/18 05:54:47;;;;;;;31.73;18.42;;;;;;;-144.87;100.00;61487.56;4979743;28;20050;-79
2023/04/18 05:57:14;;;;;;;25.30;17.85;;;;;;;-144.87;100.00;61487.56;4973028;28;20044;-79
2023/04/18 05:59:40;;;;;;;30.10;18.40;;;;;;;-144.87;100.00;61487.56;4959219;28;20586;-79
2023/04/18 06:02:11;;;;;;;30.30;18.23;;;;;;;-144.87;100.00;61487.56;4984981;28;20077;-79
2023/04/18 06:04:40;;;;;;;34.28;17.70;;;;;;;-144.87;100.00;61487.56;4971982;28;20046;-79
2023/04/18 06:07:07;;;;;;;29.13;18.00;;;;;;;-144.87;100.00;61487.56;4962619;28;20450;-79
2023/04/18 06:09:33;;;;;;;30.17;17.75;;;;;;;-144.87;100.00;61487.56;4968132;28;20557;-79
2023/04/18 06:12:00;;;;;;;25.88;17.77;;;;;;;-144.87;100.00;61487.56;4986820;28;20069;-79
2023/04/18 06:14:27;;;;;;;41.40;18.38;;;;;;;-144.87;100.00;61487.56;4962854;28;20468;-80
2023/04/18 06:16:53;;;;;;;29.65;17.67;;;;;;;-144.87;100.00;61487.56;4954176;28;20034;-78
2023/04/18 06:19:19;;;;;;;30.15;18.13;;;;;;;-144.87;100.00;61487.56;4963924;28;20038;-79
2023/04/18 06:21:47;;;;;;;35.17;19.33;;;;;;;-144.87;100.00;61487.56;4957325;28;20026;-80
2023/04/18 06:24:13;;;;;;;42.65;19.45;;;;;;;-144.87;100.00;61487.56;4951705;28;20496;-79
2023/04/18 06:26:39;;;;;;;25.90;17.30;;;;;;;-144.87;100.00;61487.56;4979988;28;20050;-77
2023/04/18 06:29:05;;;;;;;28.77;17.85;;;;;;;-144.87;100.00;61487.56;4976648;28;20564;-76
2023/04/18 06:31:32;;;;;;;25.88;17.25;;;;;;;-144.87;100.00;61487.56;4973332;28;20547;-77
2023/04/18 06:33:58;;;;;;;26.38;17.70;;;;;;;-144.87;100.00;61487.56;4961887;28;20053;-78
2023/04/18 06:36:26;;;;;;;24.67;17.15;;;;;;;-144.87;100.00;61487.56;4950888;28;20134;-78
2023/04/18 06:38:52;;;;;;;28.92;17.52;;;;;;;-144.87;100.00;61487.56;4937176;28;20057;-77
2023/04/18 06:41:18;;;;;;;27.95;17.75;;;;;;;-144.87;100.00;61487.56;4977480;28;20034;-77
2023/04/18 06:43:45;;;;;;;31.17;16.38;;;;;;;-144.87;100.00;61487.56;4958485;28;20467;-82
2023/04/18 06:46:11;;;;;;;26.95;17.67;;;;;;;-144.87;100.00;61487.56;4971906;28;20427;-78
2023/04/18 06:48:37;;;;;;;27.33;17.30;;;;;;;-144.87;100.00;61487.56;4976305;28;20501;-80
2023/04/18 06:51:05;;;;;;;29.10;18.17;;;;;;;-144.87;100.00;61487.56;4962995;28;20066;-78
2023/04/18 06:53:31;;;;;;;28.63;17.10;;;;;;;-144.87;100.00;61487.56;4968808;28;20640;-78
2023/04/18 06:55:57;;;;;;;31.67;17.40;;;;;;;-144.87;100.00;61487.56;4971456;28;20038;-78
2023/04/18 06:58:23;;;;;;;26.63;16.35;;;;;;;-144.87;100.00;61487.56;4950409;28;20035;-78
2023/04/18 07:00:50;;;;;;;26.27;16.90;;;;;;;-144.87;100.00;61487.56;4975383;28;20050;-79
2023/04/18 07:03:17;;;;;;;24.58;15.23;;;;;;;-144.87;100.00;61487.56;4955860;28;20407;-79
2023/04/18 07:05:46;;;;;;;25.27;16.58;;;;;;;-144.87;100.00;61487.56;4976703;28;20073;-78
2023/04/18 07:08:12;;;;;;;26.25;16.25;;;;;;;-144.87;100.00;61487.56;4957876;28;20138;-77
2023/04/18 07:10:39;;;;;;;28.38;16.55;;;;;;;-144.87;100.00;61487.56;4982972;28;20052;-77
2023/04/18 07:13:05;;;;;;;24.25;16.58;;;;;;;-144.87;100.00;61487.56;4979824;28;20038;-77
2023/04/18 07:15:32;;;;;;;23.77;15.95;;;;;;;-144.87;100.00;61487.56;4956657;28;20065;-79
2023/04/18 07:17:59;;;;;;;22.15;15.38;;;;;;;-144.87;100.00;61487.56;4989811;28;20034;-80
2023/04/18 07:20:25;;;;;;;29.05;16.58;;;;;;;-144.87;100.00;61487.56;4956235;28;20572;-77
2023/04/18 07:22:51;;;;;;;22.67;16.05;;;;;;;-144.87;100.00;61487.56;4990247;28;20129;-77
2023/04/18 07:25:18;;;;;;;19.85;14.48;;;;;;;-144.87;100.00;61487.56;4990237;28;20065;-77
2023/04/18 07:27:44;;;;;;;30.92;15.25;;;;;;;-144.87;100.00;61487.56;4973053;28;20042;-77
2023/04/18 07:30:11;;;;;;;22.15;14.80;;;;;;;-144.87;100.00;61487.56;4973420;28;20052;-77
2023/04/18 07:32:37;;;;;;;25.98;15.05;;;;;;;-144.87;100.00;61487.56;4980435;28;20444;-78
2023/04/18 07:35:04;;;;;;;26.67;17.33;;;;;;;-144.87;100.00;61487.56;4958310;28;20171;-79
2023/04/18 07:37:30;;;;;;;23.42;16.80;;;;;;;-144.87;100.00;61487.56;4953690;28;20072;-78
2023/04/18 07:39:57;;;;;;;26.80;16.83;;;;;;;-144.87;100.00;61487.56;4946180;28;20039;-78
2023/04/18 07:42:23;;;;;;;25.08;16.60;;;;;;;-144.87;100.00;61487.56;4980760;28;20050;-78
2023/04/18 07:44:50;;;;;;;20.52;14.50;;;;;;;-144.87;100.00;61487.56;4974465;28;20049;-78
2023/04/18 07:47:18;;;;;;;23.15;14.15;;;;;;;-144.87;100.00;61487.56;4964594;28;20492;-77
2023/04/18 07:49:44;;;;;;;18.13;13.52;;;;;;;-144.87;100.00;61487.56;4955887;28;20042;-78
2023/04/18 07:52:10;;;;;;;20.92;13.82;;;;;;;-144.87;100.00;61487.56;4980628;28;20062;-78
2023/04/18 07:54:36;;;;;;;21.58;12.80;;;;;;;-144.87;100.00;61487.56;4956755;28;20438;-78
2023/04/18 07:57:03;;;;;;;19.88;13.20;;;;;;;-144.87;100.00;61487.56;4966548;28;20031;-77
2023/04/18 07:59:30;;;;;;;22.27;13.20;;;;;;;-144.87;100.00;61487.56;4988111;28;20116;-78
2023/04/18 08:01:57;;;;;;;18.90;12.10;;;;;;;-144.87;100.00;61487.56;4990815;28;20026;-78
2023/04/18 08:04:24;;;;;;;18.05;12.90;;;;;;;-144.87;100.00;61487.56;4980075;28;20088;-77
2023/04/18 08:06:50;;;;;;;19.27;12.68;;;;;;;-144.87;100.00;61487.56;4966142;28;20039;-78
2023/04/18 08:09:18;;;;;;;19.83;13.00;;;;;;;-144.87;100.00;61487.56;4979592;28;20027;-78
2023/04/18 08:11:44;;;;;;;19.58;13.10;;;;;;;-144.87;100.00;61487.56;4994067;28;20043;-79
2023/04/18 08:14:10;;;;;;;17.38;11.98;;;;;;;-144.87;100.00;61487.56;4975796;28;20038;-78
2023/04/18 08:16:37;;;;;;;17.73;12.35;;;;;;;-144.87;100.00;61487.56;4993270;28;20030;-78
2023/04/18 08:19:03;;;;;;;20.23;12.82;;;;;;;-144.87;100.00;61487.56;4975255;28;20432;-78
2023/04/18 08:21:30;;;;;;;19.35;12.77;;;;;;;-144.87;100.00;61487.56;4959430;28;20745;-78
2023/04/18 08:23:56;;;;;;;21.52;12.27;;;;;;;-144.87;100.00;61487.56;4976507;28;20096;-78
2023/04/18 08:26:23;;;;;;;18.58;12.40;;;;;;;-144.87;100.00;61487.56;4960578;28;20038;-78
2023/04/18 08:28:50;;;;;;;16.98;12.80;;;;;;;-144.87;100.00;61487.56;4993278;28;20041;-78
2023/04/18 08:31:16;;;;;;;18.77;11.18;;;;;;;-144.87;100.00;61487.56;4959639;28;20488;-78
2023/04/18 08:33:43;;;;;;;18.63;13.10;;;;;;;-144.87;100.00;61487.56;4993010;28;20129;-78
2023/04/18 08:36:10;;;;;;;14.98;10.48;;;;;;;-144.87;100.00;61487.56;4975879;28;20038;-78
2023/04/18 08:38:37;;;;;;;16.40;9.77;;;;;;;-144.87;100.00;61487.56;4992816;28;20053;-78
2023/04/18 08:41:03;;;;;;;15.50;10.25;;;;;;;-144.87;100.00;61487.56;4975003;28;20045;-78
2023/04/18 08:43:30;;;;;;;14.13;9.55;;;;;;;-144.87;100.00;61487.56;4971047;28;20042;-78
2023/04/18 08:45:59;;;;;;;14.38;9.70;;;;;;;-144.87;100.00;61487.56;4957800;28;20082;-78
2023/04/18 08:48:29;;;;;;;13.82;10.07;;;;;;;-144.87;100.00;61487.56;4958839;28;20154;-78
2023/04/18 08:51:00;;;;;;;15.45;10.70;;;;;;;-144.87;100.00;61487.56;4960061;28;20030;-78
2023/04/18 08:53:26;;;;;;;;;;;;;;;-144.87;100.00;61487.56;4990343;28;20043;-78
2023/04/18 08:55:56;;;;;;;15.65;11.50;;;;;;;-144.87;100.00;61487.56;4975133;28;19921;-78
2023/04/18 08:58:25;;;;;;;20.85;11.20;;;;;;;-144.87;100.00;61487.56;4943467;28;20030;-78
2023/04/18 09:00:52;;;;;;;22.38;10.48;;;;;;;-144.87;100.00;61487.56;4948103;28;20038;-78
2023/04/18 09:03:41;;;;;;;15.27;11.15;;;;;;;-144.87;100.00;61487.56;4948381;28;20049;-78
2023/04/18 09:06:17;;;;;;;22.10;12.57;;;;;;;-144.87;100.00;61487.56;4971470;28;20404;-78
2023/04/18 09:08:57;;;;;;;22.52;13.18;;;;;;;-144.87;100.00;61487.56;4955998;28;20515;-81
2023/04/18 09:11:24;;;;;;;19.27;13.55;;;;;;;-144.87;100.00;61487.56;4969037;28;20031;-78
2023/04/18 09:13:52;;;;;;;20.00;13.00;;;;;;;-144.87;100.00;61487.56;4977540;28;20034;-78
2023/04/18 09:16:21;;;;;;;18.70;13.02;;;;;;;-144.87;100.00;61487.56;4975329;28;20081;-78
2023/04/18 09:19:11;;;;;;;19.05;13.05;;;;;;;-144.87;100.00;61487.56;4975724;28;20119;-78
2023/04/18 09:21:45;;;;;;;22.67;14.70;;;;;;;-144.87;100.00;61487.56;4975389;28;20037;-77
2023/04/18 09:24:27;;;;;;;21.70;13.27;;;;;;;-144.87;100.00;61487.56;4959283;28;20503;-77
2023/04/18 09:26:55;;;;;;;21.05;14.02;;;;;;;-144.87;100.00;61487.56;4959341;28;20030;-77
2023/04/18 09:29:42;;;;;;;19.00;12.05;;;;;;;-144.87;100.00;61487.56;4975246;28;20050;-78
2023/04/18 09:32:08;;;;;;;16.35;11.55;;;;;;;-144.87;100.00;61487.56;4942758;28;20075;-77
2023/04/18 09:34:41;;;;;;;21.73;12.23;;;;;;;-144.87;100.00;61487.56;4968733;28;20474;-77
2023/04/18 09:37:12;;;;;;;16.27;12.00;;;;;;;-144.87;100.00;61487.56;4991066;28;20026;-78
2023/04/18 09:39:42;;;;;;;;;;;;;;;-144.87;100.00;61487.56;4954432;28;20648;-77
2023/04/18 09:42:11;;;;;;;15.93;10.05;;;;;;;-144.87;100.00;61487.56;4986732;28;20363;-77
2023/04/18 09:44:56;;;;;;;15.05;9.77;;;;;;;-144.87;100.00;61487.56;4947085;28;20034;-77
2023/04/18 09:47:23;;;;;;;15.10;10.75;;;;;;;-144.87;100.00;61487.56;4958335;28;20121;-76
2023/04/18 09:49:49;;;;;;;13.02;9.60;;;;;;;-144.87;100.00;61487.56;4958216;28;20042;-77
2023/04/18 09:52:15;;;;;;;19.90;9.68;;;;;;;-144.87;100.00;61487.56;4963231;28;20031;-77
2023/04/18 09:54:43;;;;;;;11.85;8.95;;;;;;;-144.87;100.00;61487.56;4958060;28;20080;-77
2023/04/18 09:57:14;;;;;;;14.45;10.07;;;;;;;-144.87;100.00;61487.56;4958577;28;20423;-77
2023/04/18 09:59:50;;;;;;;12.57;9.57;;;;;;;-144.87;100.00;61487.56;4991975;28;20030;-77
2023/04/18 10:02:21;;;;;;;14.10;9.18;;;;;;;-144.87;100.00;61487.56;4973446;28;20503;-77
2023/04/18 10:04:52;;;;;;;12.27;9.00;;;;;;;-144.87;100.00;61487.56;4973866;28;20462;-77
2023/04/18 10:07:18;;;;;;;13.77;9.45;;;;;;;-144.87;100.00;61487.56;4974268;28;20038;-78
2023/04/18 10:09:46;;;;;;;11.38;8.13;;;;;;;-144.87;100.00;61487.56;4991134;28;20034;-77
2023/04/18 10:12:15;;;;;;;15.27;9.32;;;;;;;-144.87;100.00;61487.56;4974819;28;20050;-78
2023/04/18 10:14:42;;;;;;;13.60;8.93;;;;;;;-144.87;100.00;61487.56;4926726;28;20034;-78
2023/04/18 10:17:09;;;;;;;12.15;9.85;;;;;;;-144.87;100.00;61487.56;4958115;28;20058;-77
2023/04/18 10:19:40;;;;;;;12.30;10.05;;;;;;;-144.87;100.00;61487.56;4991447;28;20047;-77
2023/04/18 10:22:07;;;;;;;;;;;;;;;-144.87;100.00;61487.56;4974142;28;20439;-76
2023/04/18 10:24:49;;;;;;;18.73;11.32;;;;;;;-144.87;100.00;61487.56;4983506;28;20374;-78
2023/04/18 10:27:16;;;;;;;15.15;10.98;;;;;;;-144.87;100.00;61487.56;4985584;28;20031;-77
2023/04/18 10:29:53;;;;;;;19.05;13.75;;;;;;;-144.87;100.00;61487.56;4991160;28;20026;-78
2023/04/18 10:32:21;;;;;;;13.68;9.57;;;;;;;-144.87;100.00;61487.56;4972880;28;20038;-77
2023/04/18 10:34:54;;;;;;;18.90;9.57;;;;;;;-144.87;100.00;61487.56;4991976;28;20038;-77
2023/04/18 10:37:20;;;;;;;15.45;10.02;;;;;;;-144.87;100.00;61487.56;4972470;28;20130;-77
2023/04/18 10:40:01;;;;;;;12.50;9.30;;;;;;;-144.87;100.00;61487.56;4982452;28;20133;-78
2023/04/18 10:42:46;;;;;;;17.27;10.88;;;;;;;-144.87;100.00;61487.56;4969649;28;20097;-79
2023/04/18 10:45:20;;;;;;;13.82;9.63;;;;;;;-144.87;100.00;61487.56;4987827;28;20133;-78
2023/04/18 10:47:47;;;;;;;14.52;10.65;;;;;;;-144.87;100.00;61487.56;4949159;28;20034;-77
2023/04/18 10:50:14;;;;;;;18.83;11.05;;;;;;;-144.87;100.00;61487.56;4962781;28;20134;-78
2023/04/18 10:52:40;;;;;;;13.68;11.07;;;;;;;-144.87;100.00;61487.56;4956926;28;20389;-77
2023/04/18 10:55:19;;;;;;;17.33;12.80;;;;;;;-144.87;100.00;61487.56;4976766;28;20057;-78
2023/04/18 10:57:47;;;;;;;16.33;11.13;;;;;;;-144.87;100.00;61487.56;4957376;28;20455;-78
2023/04/18 11:00:15;;;;;;;17.13;11.73;;;;;;;-144.87;100.00;61487.56;4959475;28;20093;-77
2023/04/18 11:02:54;;;;;;;15.32;11.02;;;;;;;-144.87;100.00;61487.56;4987705;28;20117;-77